Time;durP1;ratioP1;P1;durP2;ratioP2;P2;SDS_P1;SDS_P2;PMS_P1;PMS_P2;Temp;Humidity;BMP_temperature;BMP_pressure;BME280_temperature;BME280_humidity;BME280_pressure;Samples;Min_cycle;Max_cycle;Signal;HPM_P1;HPM_P2
2022/07/05 05:37:26;;;;;;;4.95;3.03;;;;;;;;;;7388012;19;20480;-79
2022/07/05 05:39:51;;;;;;;4.40;3.58;;;;;;;;;;7386398;19;20526;-78
2022/07/05 05:42:17;;;;;;;3.67;3.17;;;;;;;;;;7379832;19;20228;-78
2022/07/05 05:44:42;;;;;;;3.70;2.80;;;;;;;;;;7382284;19;20149;-83
2022/07/05 05:47:07;;;;;;;4.47;3.17;;;;;;;;;;7383643;19;20155;-80
2022/07/05 05:49:33;;;;;;;7.13;3.35;;;;;;;;;;7389207;19;20667;-79
2022/07/05 05:51:58;;;;;;;6.22;3.60;;;;;;;;;;7387353;19;20156;-80
2022/07/05 05:54:23;;;;;;;3.67;2.65;;;;;;;;;;7377545;19;20644;-80
2022/07/05 05:56:49;;;;;;;4.70;3.15;;;;;;;;;;7382516;19;20485;-83
2022/07/05 05:59:14;;;;;;;6.25;3.05;;;;;;;;;;7377729;19;20132;-83
2022/07/05 06:01:39;;;;;;;4.65;3.35;;;;;;;;;;7382165;19;20149;-82
2022/07/05 06:04:04;;;;;;;9.43;3.67;;;;;;;;;;7386756;19;20140;-81
2022/07/05 06:06:30;;;;;;;6.55;3.97;;;;;;;;;;7381183;19;20121;-83
2022/07/05 06:08:55;;;;;;;4.15;2.58;;;;;;;;;;7383896;19;20125;-85
2022/07/05 06:11:21;;;;;;;6.07;3.40;;;;;;;;;;7418444;19;20262;-87
2022/07/05 06:13:46;;;;;;;3.15;2.83;;;;;;;;;;7425960;19;20160;-85
2022/07/05 06:16:11;;;;;;;5.70;3.33;;;;;;;;;;7422921;19;20129;-86
2022/07/05 06:18:37;;;;;;;5.68;3.35;;;;;;;;;;7423998;19;20166;-86
2022/07/05 06:21:02;;;;;;;4.90;3.05;;;;;;;;;;7424222;19;20137;-84
2022/07/05 06:23:28;;;;;;;6.07;3.17;;;;;;;;;;7398237;19;20167;-81
2022/07/05 06:25:53;;;;;;;3.28;2.95;;;;;;;;;;7399574;19;20686;-80
2022/07/05 06:28:18;;;;;;;4.55;3.40;;;;;;;;;;7401288;19;20148;-81
2022/07/05 06:30:44;;;;;;;10.27;3.50;;;;;;;;;;7398857;19;20156;-81
2022/07/05 06:33:09;;;;;;;4.45;3.53;;;;;;;;;;7401672;19;20144;-84
2022/07/05 06:35:34;;;;;;;5.65;3.55;;;;;;;;;;7402537;19;20600;-83
2022/07/05 06:38:01;;;;;;;4.07;3.67;;;;;;;;;;7398504;19;20466;-80
2022/07/05 06:40:32;;;;;;;4.47;4.00;;;;;;;;;;7397838;19;20618;-83
2022/07/05 06:42:59;;;;;;;3.63;3.30;;;;;;;;;;7392111;19;20155;-81
2022/07/05 06:45:25;;;;;;;5.07;3.88;;;;;;;;;;7394663;19;20269;-79
2022/07/05 06:47:54;;;;;;;5.10;3.55;;;;;;;;;;7390038;19;20161;-79
2022/07/05 06:50:20;;;;;;;7.28;4.72;;;;;;;;;;7390441;19;20176;-80
2022/07/05 06:52:45;;;;;;;5.85;4.20;;;;;;;;;;7393332;19;20487;-83
2022/07/05 06:55:10;;;;;;;5.13;4.00;;;;;;;;;;7396522;19;20151;-80
2022/07/05 06:57:35;;;;;;;3.60;3.30;;;;;;;;;;7385535;19;20133;-81
2022/07/05 07:00:01;;;;;;;5.03;3.92;;;;;;;;;;7379843;19;20145;-79
2022/07/05 07:02:27;;;;;;;3.78;3.47;;;;;;;;;;7387186;19;20173;-79
2022/07/05 07:04:52;;;;;;;6.78;4.00;;;;;;;;;;7385517;19;20137;-82
2022/07/05 07:10:02;;;;;;;5.13;4.07;;;;;;;;;;7385318;19;20128;-79
2022/07/05 07:12:29;;;;;;;3.75;3.42;;;;;;;;;;7381545;19;20160;-84
2022/07/05 07:14:54;;;;;;;8.75;4.03;;;;;;;;;;7385491;19;20516;-82
2022/07/05 07:17:20;;;;;;;5.60;3.92;;;;;;;;;;7383563;19;20169;-82
2022/07/05 07:19:45;;;;;;;4.32;3.60;;;;;;;;;;7382471;19;20153;-83
2022/07/05 07:22:10;;;;;;;4.70;3.45;;;;;;;;;;7381656;19;20568;-82
2022/07/05 07:24:36;;;;;;;6.03;3.30;;;;;;;;;;7377379;19;20144;-79
2022/07/05 07:27:04;;;;;;;4.80;3.30;;;;;;;;;;7385721;19;20163;-80
2022/07/05 07:29:32;;;;;;;3.55;3.25;;;;;;;;;;7386485;19;20133;-80
2022/07/05 07:31:58;;;;;;;6.65;3.53;;;;;;;;;;7386404;19;20172;-80
2022/07/05 07:34:24;;;;;;;3.72;3.35;;;;;;;;;;7386897;19;20136;-80
2022/07/05 07:36:50;;;;;;;4.60;3.00;;;;;;;;;;7384909;19;20188;-80
2022/07/05 07:39:15;;;;;;;4.70;3.47;;;;;;;;;;7385213;19;20611;-81
2022/07/05 07:41:41;;;;;;;6.35;3.47;;;;;;;;;;7384013;19;20159;-81
2022/07/05 07:44:06;;;;;;;3.95;3.40;;;;;;;;;;7387387;19;20117;-80
2022/07/05 07:46:32;;;;;;;4.50;3.22;;;;;;;;;;7384734;19;20152;-82
2022/07/05 07:48:58;;;;;;;5.25;3.65;;;;;;;;;;7387352;19;20121;-83
2022/07/05 07:51:23;;;;;;;4.15;3.30;;;;;;;;;;7386947;19;20713;-80
2022/07/05 07:53:48;;;;;;;3.90;3.15;;;;;;;;;;7387052;19;20116;-81
2022/07/05 07:56:14;;;;;;;3.80;3.22;;;;;;;;;;7386181;19;20141;-83
2022/07/05 07:58:39;;;;;;;6.20;3.35;;;;;;;;;;7384630;19;20155;-80
2022/07/05 08:01:10;;;;;;;4.47;3.58;;;;;;;;;;7384936;19;20180;-81
2022/07/05 08:03:36;;;;;;;4.22;3.83;;;;;;;;;;7388360;19;20141;-80
2022/07/05 08:06:01;;;;;;;4.35;3.95;;;;;;;;;;7383731;19;20155;-80
2022/07/05 08:08:26;;;;;;;3.92;3.13;;;;;;;;;;7387319;19;20177;-82
2022/07/05 08:10:52;;;;;;;5.10;3.40;;;;;;;;;;7387396;19;20157;-80
2022/07/05 08:13:17;;;;;;;3.92;3.63;;;;;;;;;;7388760;19;20145;-81
2022/07/05 08:15:42;;;;;;;5.30;3.50;;;;;;;;;;7386399;19;20220;-83
2022/07/05 08:23:36;;;;;;;5.20;3.45;;;;;;;;;;7394501;19;20136;-80
2022/07/05 08:26:01;;;;;;;4.65;3.40;;;;;;;;;;7395421;19;20133;-81
2022/07/05 08:28:28;;;;;;;3.97;3.38;;;;;;;;;;7395520;19;20164;-80
2022/07/05 08:30:53;;;;;;;4.38;3.13;;;;;;;;;;7398883;19;20184;-81
2022/07/05 08:33:19;;;;;;;3.58;3.05;;;;;;;;;;7390627;19;20121;-80
2022/07/05 08:35:44;;;;;;;4.10;3.00;;;;;;;;;;7393133;19;20615;-80
2022/07/05 08:38:09;;;;;;;3.10;2.85;;;;;;;;;;7389128;19;20176;-81
2022/07/05 08:40:37;;;;;;;5.60;3.05;;;;;;;;;;7392362;19;20173;-80
2022/07/05 08:43:03;;;;;;;6.75;3.03;;;;;;;;;;7394456;19;20560;-80
2022/07/05 08:45:29;;;;;;;2.58;2.38;;;;;;;;;;7393987;19;20164;-80
2022/07/05 08:47:56;;;;;;;4.32;2.80;;;;;;;;;;7394670;19;20148;-80
2022/07/05 08:50:21;;;;;;;2.72;2.53;;;;;;;;;;7393087;19;20148;-80
2022/07/05 08:52:47;;;;;;;2.75;2.55;;;;;;;;;;7394866;19;20148;-80
2022/07/05 08:55:13;;;;;;;4.07;2.80;;;;;;;;;;7390707;19;20149;-82
2022/07/05 08:57:38;;;;;;;3.38;3.03;;;;;;;;;;7388923;19;20172;-81
2022/07/05 09:00:04;;;;;;;4.15;2.50;;;;;;;;;;7390942;19;20511;-80
2022/07/05 09:02:29;;;;;;;3.22;2.53;;;;;;;;;;7393749;19;20137;-80
2022/07/05 09:04:56;;;;;;;3.10;2.80;;;;;;;;;;7392288;19;20151;-82
2022/07/05 09:07:22;;;;;;;4.80;2.60;;;;;;;;;;7397141;19;20141;-81
2022/07/05 09:09:50;;;;;;;4.28;3.38;;;;;;;;;;7385994;19;20627;-81
2022/07/05 09:12:15;;;;;;;5.82;2.78;;;;;;;;;;7386857;19;20288;-80
2022/07/05 09:14:41;;;;;;;4.72;3.45;;;;;;;;;;7392494;19;20233;-79
2022/07/05 09:17:06;;;;;;;3.28;2.92;;;;;;;;;;7390999;19;20133;-79
2022/07/05 09:19:32;;;;;;;4.38;2.95;;;;;;;;;;7395362;19;20669;-80
2022/07/05 09:22:04;;;;;;;4.38;2.83;;;;;;;;;;7389336;19;20144;-81
2022/07/05 09:24:31;;;;;;;4.00;2.80;;;;;;;;;;7389687;19;20177;-79
2022/07/05 09:27:05;;;;;;;4.57;2.10;;;;;;;;;;7387765;19;20141;-79
2022/07/05 09:29:31;;;;;;;4.43;2.65;;;;;;;;;;7388183;19;20132;-79
2022/07/05 09:31:56;;;;;;;2.47;2.08;;;;;;;;;;7384525;19;20201;-79
2022/07/05 09:34:22;;;;;;;2.55;2.22;;;;;;;;;;7391021;19;20191;-80
2022/07/05 09:37:03;;;;;;;3.88;2.38;;;;;;;;;;7387345;19;20508;-80
2022/07/05 09:39:37;;;;;;;2.92;2.28;;;;;;;;;;7391718;19;20121;-82
2022/07/05 09:42:19;;;;;;;2.40;2.20;;;;;;;;;;7394371;19;20618;-80
2022/07/05 09:44:58;;;;;;;3.80;2.35;;;;;;;;;;7401917;19;20148;-82
2022/07/05 09:47:29;;;;;;;4.47;2.53;;;;;;;;;;7401064;19;20140;-80
2022/07/05 09:49:56;;;;;;;3.30;2.60;;;;;;;;;;7399478;19;20141;-83
2022/07/05 09:52:41;;;;;;;2.55;2.20;;;;;;;;;;7400585;19;20157;-80
2022/07/05 09:55:12;;;;;;;3.20;2.20;;;;;;;;;;7396736;19;20145;-81
2022/07/05 09:57:39;;;;;;;2.95;2.28;;;;;;;;;;7401743;19;20155;-81
2022/07/05 10:00:05;;;;;;;5.50;2.40;;;;;;;;;;7399859;19;20148;-81
2022/07/05 10:02:44;;;;;;;5.00;2.35;;;;;;;;;;7401414;19;20132;-82
2022/07/05 10:05:10;;;;;;;3.38;2.08;;;;;;;;;;7420399;19;20165;-82
2022/07/05 10:07:40;;;;;;;3.55;2.30;;;;;;;;;;7415081;19;20158;-81
2022/07/05 10:10:06;;;;;;;3.33;1.98;;;;;;;;;;7419395;19;20155;-82
2022/07/05 10:12:32;;;;;;;3.40;1.80;;;;;;;;;;7419029;19;20125;-82
2022/07/05 10:14:59;;;;;;;2.70;2.00;;;;;;;;;;7424592;19;20117;-82
2022/07/05 10:17:25;;;;;;;3.05;1.88;;;;;;;;;;7421883;19;20132;-81
2022/07/05 10:19:51;;;;;;;3.65;1.80;;;;;;;;;;7389870;19;20162;-82
2022/07/05 10:22:16;;;;;;;3.80;1.77;;;;;;;;;;7391941;19;20627;-81
2022/07/05 10:24:41;;;;;;;2.35;2.08;;;;;;;;;;7391468;19;20493;-80
2022/07/05 10:27:08;;;;;;;3.45;2.10;;;;;;;;;;7389774;19;20204;-80
2022/07/05 10:29:34;;;;;;;2.92;2.00;;;;;;;;;;7390210;19;20169;-81
2022/07/05 10:32:01;;;;;;;2.10;1.77;;;;;;;;;;7382432;19;20160;-80
2022/07/05 10:34:26;;;;;;;3.15;2.00;;;;;;;;;;7391200;19;20172;-80
2022/07/05 10:36:51;;;;;;;2.70;1.67;;;;;;;;;;7388464;19;20620;-81
2022/07/05 10:39:17;;;;;;;2.80;2.05;;;;;;;;;;7389251;19;20611;-80
2022/07/05 10:41:43;;;;;;;3.20;2.40;;;;;;;;;;7386472;19;20152;-80
2022/07/05 10:44:09;;;;;;;3.65;2.35;;;;;;;;;;7387274;19;20117;-80
2022/07/05 10:46:35;;;;;;;2.45;1.75;;;;;;;;;;7387480;19;20156;-80
2022/07/05 10:49:30;;;;;;;2.10;1.70;;;;;;;;;;7395096;19;20229;-80
2022/07/05 10:51:55;;;;;;;3.80;2.03;;;;;;;;;;7385570;19;20169;-80
2022/07/05 10:54:20;;;;;;;3.22;1.67;;;;;;;;;;7390563;19;20153;-80
2022/07/05 10:57:22;;;;;;;3.17;1.85;;;;;;;;;;7392894;19;20128;-80
2022/07/05 11:00:08;;;;;;;2.00;1.80;;;;;;;;;;7389191;19;20160;-80
2022/07/05 11:02:33;;;;;;;2.10;1.77;;;;;;;;;;7392397;19;20141;-80
2022/07/05 11:04:59;;;;;;;1.95;1.73;;;;;;;;;;7398896;19;20143;-81
2022/07/05 11:08:00;;;;;;;2.22;1.92;;;;;;;;;;7397363;19;20145;-81
2022/07/05 11:10:25;;;;;;;3.13;1.83;;;;;;;;;;7395940;19;20506;-81
2022/07/05 11:12:51;;;;;;;2.20;1.63;;;;;;;;;;7396635;19;20136;-81
2022/07/05 11:15:17;;;;;;;2.28;1.90;;;;;;;;;;7398978;19;20160;-81
2022/07/05 11:17:42;;;;;;;3.05;1.90;;;;;;;;;;7388820;19;20144;-82
2022/07/05 11:20:20;;;;;;;3.53;1.90;;;;;;;;;;7393926;19;20140;-81
2022/07/05 11:23:04;;;;;;;3.50;2.10;;;;;;;;;;7386765;19;20869;-81
2022/07/05 11:25:31;;;;;;;2.20;1.60;;;;;;;;;;7391326;19;20215;-81
2022/07/05 11:28:05;;;;;;;1.95;1.73;;;;;;;;;;7394305;19;20568;-81
2022/07/05 11:30:44;;;;;;;2.10;1.90;;;;;;;;;;7388517;19;20583;-82
2022/07/05 11:33:43;;;;;;;4.90;2.25;;;;;;;;;;7390398;19;20638;-81
2022/07/05 11:36:24;;;;;;;5.32;2.03;;;;;;;;;;7392996;19;20275;-82
2022/07/05 11:39:09;;;;;;;2.22;1.83;;;;;;;;;;7392794;19;20156;-81
2022/07/05 11:41:37;;;;;;;4.97;1.95;;;;;;;;;;7390324;19;20618;-82
2022/07/05 11:44:02;;;;;;;3.13;2.10;;;;;;;;;;7393040;19;20148;-81
2022/07/05 11:46:28;;;;;;;3.55;1.90;;;;;;;;;;7395076;19;20168;-82
2022/07/05 11:48:53;;;;;;;3.45;1.70;;;;;;;;;;7393167;19;20256;-81
2022/07/05 11:51:19;;;;;;;2.53;1.83;;;;;;;;;;7390774;19;20179;-82
2022/07/05 11:53:44;;;;;;;5.90;2.20;;;;;;;;;;7392164;19;20143;-81
2022/07/05 11:56:10;;;;;;;3.15;2.75;;;;;;;;;;7389278;19;20168;-81
2022/07/05 11:58:35;;;;;;;1.70;1.60;;;;;;;;;;7397835;19;20161;-81
2022/07/05 12:01:01;;;;;;;2.45;1.80;;;;;;;;;;7395477;19;20160;-82
2022/07/05 12:03:27;;;;;;;2.55;2.35;;;;;;;;;;7397773;19;20147;-82
2022/07/05 12:05:52;;;;;;;5.10;2.30;;;;;;;;;;7397962;19;20148;-81
2022/07/05 12:08:25;;;;;;;2.47;2.00;;;;;;;;;;7394869;19;20125;-81
2022/07/05 12:13:49;;;;;;;4.57;2.20;;;;;;;;;;7392281;19;20164;-81
2022/07/05 12:16:15;;;;;;;4.78;1.90;;;;;;;;;;7390427;19;20148;-82
2022/07/05 12:18:51;;;;;;;2.80;2.00;;;;;;;;;;7389562;19;20474;-82
2022/07/05 12:21:17;;;;;;;3.10;1.88;;;;;;;;;;7395670;19;20167;-82
2022/07/05 12:23:44;;;;;;;2.67;1.70;;;;;;;;;;7420096;19;20145;-82
2022/07/05 12:26:09;;;;;;;5.68;2.60;;;;;;;;;;7419379;19;20150;-82
2022/07/05 12:28:36;;;;;;;2.33;1.80;;;;;;;;;;7420849;19;20140;-83
2022/07/05 12:31:17;;;;;;;3.50;2.20;;;;;;;;;;7420696;19;20168;-82
2022/07/05 12:33:43;;;;;;;3.92;2.28;;;;;;;;;;7403438;19;20140;-82
2022/07/05 12:36:14;;;;;;;2.22;2.03;;;;;;;;;;7397720;19;20670;-82
2022/07/05 12:38:41;;;;;;;2.47;1.90;;;;;;;;;;7402279;19;20145;-82
2022/07/05 12:41:06;;;;;;;2.38;1.98;;;;;;;;;;7403582;19;20216;-82
2022/07/05 12:43:33;;;;;;;4.35;2.30;;;;;;;;;;7397525;19;20145;-82
2022/07/05 12:46:05;;;;;;;3.70;2.00;;;;;;;;;;7401266;19;20117;-82
2022/07/05 12:48:37;;;;;;;1.90;1.70;;;;;;;;;;7399957;19;20629;-82
2022/07/05 12:51:04;;;;;;;1.88;1.73;;;;;;;;;;7399391;19;20173;-82
2022/07/05 12:58:59;;;;;;;2.10;2.00;;;;;;;;;;7405173;19;20128;-82
2022/07/05 13:01:34;;;;;;;2.00;1.90;;;;;;;;;;7405185;19;20172;-82
2022/07/05 13:04:01;;;;;;;2.50;2.30;;;;;;;;;;7411994;19;20147;-82
2022/07/05 13:06:56;;;;;;;2.17;2.00;;;;;;;;;;7413054;19;20152;-82
2022/07/05 13:09:27;;;;;;;3.53;2.00;;;;;;;;;;7405597;19;20157;-82
2022/07/05 13:12:11;;;;;;;2.53;2.20;;;;;;;;;;7402272;19;20199;-82
2022/07/05 13:14:41;;;;;;;2.20;2.00;;;;;;;;;;7405102;19;20133;-82
2022/07/05 13:17:08;;;;;;;2.60;2.38;;;;;;;;;;7404389;19;20169;-83
2022/07/05 13:19:34;;;;;;;2.47;2.15;;;;;;;;;;7404486;19;20607;-83
2022/07/05 13:22:00;;;;;;;2.72;2.10;;;;;;;;;;7404530;19;20180;-82
2022/07/05 13:24:25;;;;;;;2.97;2.33;;;;;;;;;;7407626;19;20147;-82
2022/07/05 13:26:51;;;;;;;3.35;2.20;;;;;;;;;;7406945;19;20128;-82
2022/07/05 13:29:16;;;;;;;3.38;2.10;;;;;;;;;;7402344;19;20217;-82
2022/07/05 13:31:42;;;;;;;2.70;2.25;;;;;;;;;;7388160;19;20180;-82
2022/07/05 13:34:08;;;;;;;2.58;1.92;;;;;;;;;;7392855;19;20128;-83
2022/07/05 13:36:33;;;;;;;1.95;1.85;;;;;;;;;;7395160;19;20160;-83
2022/07/05 13:38:59;;;;;;;3.20;2.20;;;;;;;;;;7389980;19;20144;-82
2022/07/05 13:41:24;;;;;;;2.20;2.00;;;;;;;;;;7392206;19;20197;-82
2022/07/05 13:43:49;;;;;;;3.28;1.90;;;;;;;;;;7393236;19;20176;-82
2022/07/05 13:46:15;;;;;;;3.13;1.88;;;;;;;;;;7393761;19;20770;-82
2022/07/05 13:48:40;;;;;;;2.35;2.13;;;;;;;;;;7392416;19;20479;-82
2022/07/05 13:51:06;;;;;;;2.13;1.60;;;;;;;;;;7382987;19;20582;-83
2022/07/05 13:53:31;;;;;;;2.00;1.80;;;;;;;;;;7381969;19;20149;-83
2022/07/05 13:55:57;;;;;;;2.30;1.73;;;;;;;;;;7380886;19;20155;-83
2022/07/05 13:58:22;;;;;;;2.28;2.00;;;;;;;;;;7385329;19;20159;-83
2022/07/05 14:00:48;;;;;;;4.15;1.80;;;;;;;;;;7391888;19;20179;-83
2022/07/05 14:03:15;;;;;;;2.33;2.13;;;;;;;;;;7390179;19;20153;-83
2022/07/05 14:05:40;;;;;;;2.47;1.95;;;;;;;;;;7385898;19;20137;-83
2022/07/05 14:08:06;;;;;;;1.95;1.85;;;;;;;;;;7386649;19;20121;-84
2022/07/05 14:10:31;;;;;;;2.28;1.80;;;;;;;;;;7383690;19;20156;-83
2022/07/05 14:12:56;;;;;;;2.00;1.80;;;;;;;;;;7385450;19;20151;-83
2022/07/05 14:15:22;;;;;;;2.85;1.67;;;;;;;;;;7380902;19;22981;-82
2022/07/05 14:17:47;;;;;;;2.17;1.98;;;;;;;;;;7383722;19;20129;-82
2022/07/05 14:20:13;;;;;;;3.40;2.40;;;;;;;;;;7383052;19;20152;-83
2022/07/05 14:22:38;;;;;;;2.40;2.20;;;;;;;;;;7396056;19;20143;-83
2022/07/05 14:25:05;;;;;;;3.72;1.92;;;;;;;;;;7393675;19;20133;-82
2022/07/05 14:27:30;;;;;;;2.25;2.10;;;;;;;;;;7404212;19;20136;-83
2022/07/05 14:29:56;;;;;;;2.00;1.85;;;;;;;;;;7410494;19;20221;-81
2022/07/05 14:32:21;;;;;;;2.03;1.88;;;;;;;;;;7409253;19;20156;-82
2022/07/05 14:34:46;;;;;;;2.88;1.80;;;;;;;;;;7404560;19;20623;-82
2022/07/05 14:37:12;;;;;;;2.15;2.00;;;;;;;;;;7389041;19;20140;-83
2022/07/05 14:39:37;;;;;;;2.33;2.00;;;;;;;;;;7392376;19;20132;-83
2022/07/05 14:42:03;;;;;;;2.03;1.90;;;;;;;;;;7385801;19;20171;-83
2022/07/05 14:44:28;;;;;;;3.72;2.00;;;;;;;;;;7392154;19;20688;-83
2022/07/05 14:46:53;;;;;;;3.47;1.88;;;;;;;;;;7390874;19;20217;-82
2022/07/05 14:49:19;;;;;;;2.30;1.90;;;;;;;;;;7402923;19;20183;-83
2022/07/05 14:51:44;;;;;;;3.05;1.90;;;;;;;;;;7404138;19;20168;-83
2022/07/05 14:54:09;;;;;;;2.05;1.60;;;;;;;;;;7413437;19;20160;-83
2022/07/05 14:56:35;;;;;;;2.53;1.88;;;;;;;;;;7411157;19;20145;-83
2022/07/05 14:59:00;;;;;;;1.90;1.80;;;;;;;;;;7396882;19;20151;-83
2022/07/05 15:01:25;;;;;;;2.00;1.88;;;;;;;;;;7412232;19;20188;-83
2022/07/05 15:03:52;;;;;;;3.00;1.77;;;;;;;;;;7408954;19;20147;-83
2022/07/05 15:06:18;;;;;;;2.92;1.70;;;;;;;;;;7412471;19;20129;-83
2022/07/05 15:08:43;;;;;;;4.68;1.80;;;;;;;;;;7415663;19;20211;-83
2022/07/05 15:11:08;;;;;;;2.08;1.88;;;;;;;;;;7410838;19;20167;-83
2022/07/05 15:13:35;;;;;;;2.50;1.70;;;;;;;;;;7406503;19;20125;-84
2022/07/05 15:16:00;;;;;;;1.80;1.70;;;;;;;;;;7411671;19;20116;-83
2022/07/05 15:18:25;;;;;;;2.63;1.90;;;;;;;;;;7411060;19;20465;-83
2022/07/05 15:20:51;;;;;;;2.88;1.60;;;;;;;;;;7407243;19;20143;-84
2022/07/05 15:23:17;;;;;;;1.80;1.60;;;;;;;;;;7412336;19;20172;-83
2022/07/05 15:25:43;;;;;;;1.98;1.80;;;;;;;;;;7412266;19;20144;-83
2022/07/05 15:28:10;;;;;;;1.67;1.58;;;;;;;;;;7414246;19;20420;-82
2022/07/05 15:30:38;;;;;;;2.22;1.90;;;;;;;;;;7399630;19;20179;-82
2022/07/05 15:33:03;;;;;;;1.95;1.80;;;;;;;;;;7389524;19;20147;-83
2022/07/05 15:35:29;;;;;;;2.25;1.75;;;;;;;;;;7399167;19;20417;-83
2022/07/05 15:37:54;;;;;;;2.40;1.90;;;;;;;;;;7390779;19;20152;-83
2022/07/05 15:40:20;;;;;;;2.08;1.83;;;;;;;;;;7387125;19;20148;-83
2022/07/05 15:42:45;;;;;;;2.40;1.80;;;;;;;;;;7394971;19;20148;-83
2022/07/05 15:45:11;;;;;;;1.60;1.50;;;;;;;;;;7392466;19;20661;-82
2022/07/05 15:47:38;;;;;;;2.10;1.70;;;;;;;;;;7401628;19;20140;-83
2022/07/05 15:50:06;;;;;;;1.67;1.58;;;;;;;;;;7390003;19;20152;-83
2022/07/05 15:52:31;;;;;;;1.98;1.27;;;;;;;;;;7394130;19;20634;-83
2022/07/05 15:54:57;;;;;;;2.08;1.40;;;;;;;;;;7397000;19;20197;-83
2022/07/05 15:57:25;;;;;;;1.88;1.50;;;;;;;;;;7393470;19;20178;-82
2022/07/05 15:59:51;;;;;;;1.83;1.70;;;;;;;;;;7392443;19;20168;-81
2022/07/05 16:02:16;;;;;;;1.73;1.58;;;;;;;;;;7395040;19;20198;-82
2022/07/05 16:04:41;;;;;;;2.75;1.73;;;;;;;;;;7393457;19;20499;-82
2022/07/05 16:07:07;;;;;;;1.50;1.40;;;;;;;;;;7389984;19;20185;-82
2022/07/05 16:09:32;;;;;;;1.88;1.60;;;;;;;;;;7398629;19;20156;-81
2022/07/05 16:11:57;;;;;;;2.00;1.60;;;;;;;;;;7392802;19;20442;-82
2022/07/05 16:14:23;;;;;;;1.77;1.40;;;;;;;;;;7401322;19;20145;-81
2022/07/05 16:16:48;;;;;;;3.78;1.35;;;;;;;;;;7389161;19;20173;-81
2022/07/05 16:19:14;;;;;;;2.95;1.30;;;;;;;;;;7395420;19;20152;-82
2022/07/05 16:21:39;;;;;;;2.47;1.50;;;;;;;;;;7382131;19;20177;-82
2022/07/05 16:24:05;;;;;;;1.50;1.40;;;;;;;;;;7387047;19;20121;-84
2022/07/05 16:26:30;;;;;;;1.63;1.52;;;;;;;;;;7386168;19;20861;-81
2022/07/05 16:28:56;;;;;;;2.38;1.50;;;;;;;;;;7388176;19;20488;-81
2022/07/05 16:31:22;;;;;;;1.85;1.52;;;;;;;;;;7385660;19;20176;-83
2022/07/05 16:33:50;;;;;;;2.83;1.63;;;;;;;;;;7386951;19;20164;-83
2022/07/05 16:36:21;;;;;;;3.05;1.70;;;;;;;;;;7390157;19;20742;-83
2022/07/05 16:38:47;;;;;;;4.55;1.90;;;;;;;;;;7389612;19;20121;-84
2022/07/05 16:41:13;;;;;;;3.85;1.52;;;;;;;;;;7395873;19;20182;-81
2022/07/05 16:43:39;;;;;;;1.42;1.33;;;;;;;;;;7406857;19;20156;-81
2022/07/05 16:46:08;;;;;;;1.90;1.38;;;;;;;;;;7407097;19;20585;-81
2022/07/05 16:48:34;;;;;;;1.30;1.20;;;;;;;;;;7406139;19;20145;-83
2022/07/05 16:51:01;;;;;;;3.95;1.60;;;;;;;;;;7411627;19;20176;-85
2022/07/05 16:53:28;;;;;;;1.75;1.60;;;;;;;;;;7417609;19;20153;-83
2022/07/05 16:55:53;;;;;;;2.45;1.58;;;;;;;;;;7414612;19;20153;-83
2022/07/05 16:58:19;;;;;;;2.38;1.45;;;;;;;;;;7413193;19;20508;-83
2022/07/05 17:00:44;;;;;;;2.22;1.75;;;;;;;;;;7412539;19;20285;-83
2022/07/05 17:03:10;;;;;;;2.22;1.30;;;;;;;;;;7415016;19;20125;-83
2022/07/05 17:05:35;;;;;;;1.92;1.48;;;;;;;;;;7413570;19;20157;-83
2022/07/05 17:08:00;;;;;;;2.00;1.42;;;;;;;;;;7418636;19;20161;-83
2022/07/05 17:10:26;;;;;;;3.85;1.50;;;;;;;;;;7419991;19;20153;-84
2022/07/05 17:12:51;;;;;;;1.40;1.17;;;;;;;;;;7421757;19;20376;-84
2022/07/05 17:15:17;;;;;;;2.63;1.48;;;;;;;;;;7421389;19;20164;-83
2022/07/05 17:17:43;;;;;;;2.40;1.38;;;;;;;;;;7417729;19;20149;-84
2022/07/05 17:20:09;;;;;;;2.50;1.40;;;;;;;;;;7418779;19;20638;-83
2022/07/05 17:22:34;;;;;;;1.70;1.58;;;;;;;;;;7421454;19;20156;-84
2022/07/05 17:25:01;;;;;;;2.75;1.60;;;;;;;;;;7421852;19;20216;-83
2022/07/05 17:27:26;;;;;;;2.13;1.60;;;;;;;;;;7422056;19;20180;-86
2022/07/05 17:29:52;;;;;;;2.97;1.50;;;;;;;;;;7423353;19;20156;-85
2022/07/05 17:32:17;;;;;;;2.67;1.40;;;;;;;;;;7419386;19;20169;-84
2022/07/05 17:34:42;;;;;;;2.95;1.70;;;;;;;;;;7421270;19;20160;-86
2022/07/05 17:37:08;;;;;;;1.83;1.42;;;;;;;;;;7412685;19;20203;-83
2022/07/05 17:39:33;;;;;;;4.00;1.50;;;;;;;;;;7412202;19;20155;-83
2022/07/05 17:41:59;;;;;;;3.38;1.65;;;;;;;;;;7410274;19;20168;-85
2022/07/05 17:44:24;;;;;;;3.17;1.95;;;;;;;;;;7420252;19;20151;-84
2022/07/05 17:46:49;;;;;;;1.90;1.58;;;;;;;;;;7419379;19;20484;-84
2022/07/05 17:49:15;;;;;;;3.10;1.58;;;;;;;;;;7418140;19;20145;-86
2022/07/05 17:51:41;;;;;;;1.83;1.30;;;;;;;;;;7415206;19;20263;-87
2022/07/05 17:54:07;;;;;;;2.38;1.50;;;;;;;;;;7416388;19;20156;-86
2022/07/05 17:56:33;;;;;;;1.60;1.50;;;;;;;;;;7413845;19;20166;-87
2022/07/05 17:58:58;;;;;;;1.52;1.40;;;;;;;;;;7410418;19;20133;-85
2022/07/05 18:01:24;;;;;;;1.80;1.35;;;;;;;;;;7412693;19;20157;-86
2022/07/05 18:03:49;;;;;;;1.52;1.42;;;;;;;;;;7415105;19;20132;-86
2022/07/05 18:06:16;;;;;;;2.40;1.60;;;;;;;;;;7411774;19;20176;-86
2022/07/05 18:08:42;;;;;;;4.13;1.42;;;;;;;;;;7413456;19;20628;-86
2022/07/05 18:11:07;;;;;;;1.65;1.52;;;;;;;;;;7411320;19;20176;-85
2022/07/05 18:13:33;;;;;;;2.00;1.30;;;;;;;;;;7404797;19;20795;-85
2022/07/05 18:15:58;;;;;;;2.95;1.50;;;;;;;;;;7410111;19;20155;-84
2022/07/05 18:18:24;;;;;;;2.15;1.40;;;;;;;;;;7409726;19;20177;-83
2022/07/05 18:20:49;;;;;;;4.28;1.77;;;;;;;;;;7408522;19;20200;-83
2022/07/05 18:23:15;;;;;;;3.67;1.85;;;;;;;;;;7401369;19;20117;-83
2022/07/05 18:25:41;;;;;;;2.33;1.80;;;;;;;;;;7400039;19;20188;-84
2022/07/05 18:28:08;;;;;;;1.30;1.20;;;;;;;;;;7401626;19;20156;-83
2022/07/05 18:30:34;;;;;;;1.45;1.20;;;;;;;;;;7394671;19;20176;-84
2022/07/05 18:32:59;;;;;;;2.15;1.40;;;;;;;;;;7402730;19;20510;-85
2022/07/05 18:35:24;;;;;;;2.55;1.70;;;;;;;;;;7411960;19;20137;-87
2022/07/05 18:37:50;;;;;;;1.52;1.40;;;;;;;;;;7423966;19;20173;-87
2022/07/05 18:40:15;;;;;;;2.92;1.60;;;;;;;;;;7426846;19;20414;-86
2022/07/05 18:42:41;;;;;;;1.65;1.30;;;;;;;;;;7425311;19;20141;-88
2022/07/05 18:45:07;;;;;;;1.25;1.15;;;;;;;;;;7421915;19;20121;-86
2022/07/05 18:47:33;;;;;;;1.17;1.10;;;;;;;;;;7416762;19;20185;-84
2022/07/05 18:49:58;;;;;;;4.57;3.40;;;;;;;;;;7410585;19;20144;-85
2022/07/05 18:52:24;;;;;;;2.67;2.35;;;;;;;;;;7409510;19;20479;-84
2022/07/05 18:55:30;;;;;;;3.28;2.30;;;;;;;;;;7407723;19;20149;-84
2022/07/05 18:58:01;;;;;;;2.72;1.23;;;;;;;;;;7404388;19;20153;-83
2022/07/05 19:00:26;;;;;;;1.58;1.30;;;;;;;;;;7406452;19;20176;-84
2022/07/05 19:02:51;;;;;;;2.38;1.38;;;;;;;;;;7401610;19;20140;-84
2022/07/05 19:05:31;;;;;;;1.95;1.42;;;;;;;;;;7410494;19;20177;-84
2022/07/05 19:14:02;;;;;;;6.63;1.25;;;;;;;;;;7396196;19;20147;-85
2022/07/05 19:16:27;;;;;;;2.75;1.30;;;;;;;;;;7397363;19;20145;-84
2022/07/05 19:18:53;;;;;;;2.55;1.40;;;;;;;;;;7390775;19;20194;-85
2022/07/05 19:21:18;;;;;;;2.35;1.27;;;;;;;;;;7384947;19;20172;-86
2022/07/05 19:23:43;;;;;;;2.40;1.20;;;;;;;;;;7407912;19;20155;-85
2022/07/05 19:26:09;;;;;;;5.18;1.50;;;;;;;;;;7410414;19;20160;-85
2022/07/05 19:28:35;;;;;;;1.63;1.23;;;;;;;;;;7407795;19;20140;-84
2022/07/05 19:31:00;;;;;;;1.88;1.30;;;;;;;;;;7397924;19;20160;-85
2022/07/05 19:33:26;;;;;;;3.13;1.30;;;;;;;;;;7407377;19;20152;-82
2022/07/05 19:35:51;;;;;;;1.30;1.20;;;;;;;;;;7410608;19;20143;-84
2022/07/05 19:38:17;;;;;;;1.30;1.20;;;;;;;;;;7402960;19;20143;-85
2022/07/05 19:40:42;;;;;;;1.35;1.25;;;;;;;;;;7404904;19;20179;-84
2022/07/05 19:43:08;;;;;;;1.10;1.00;;;;;;;;;;7401773;19;20148;-84
2022/07/05 19:45:33;;;;;;;2.42;1.10;;;;;;;;;;7405875;19;20125;-85
2022/07/05 19:47:58;;;;;;;1.30;1.20;;;;;;;;;;7409822;19;20156;-82
2022/07/05 19:50:24;;;;;;;1.35;1.20;;;;;;;;;;7405922;19;20181;-87
2022/07/05 19:52:49;;;;;;;3.15;1.27;;;;;;;;;;7408325;19;20140;-84
2022/07/05 19:55:15;;;;;;;2.20;1.30;;;;;;;;;;7406044;19;20133;-84
2022/07/05 19:57:41;;;;;;;1.35;1.25;;;;;;;;;;7407364;19;20181;-82
2022/07/05 20:00:09;;;;;;;1.38;1.27;;;;;;;;;;7400029;19;20140;-83
2022/07/05 20:02:34;;;;;;;1.98;1.30;;;;;;;;;;7400142;19;20155;-83
2022/07/05 20:04:59;;;;;;;1.98;1.38;;;;;;;;;;7399899;19;20141;-82
2022/07/05 20:07:25;;;;;;;2.00;1.58;;;;;;;;;;7400845;19;20133;-85
2022/07/05 20:09:50;;;;;;;2.95;1.40;;;;;;;;;;7394129;19;20176;-85
2022/07/05 20:12:15;;;;;;;1.92;1.75;;;;;;;;;;7384801;19;20176;-83
2022/07/05 20:14:41;;;;;;;2.50;1.70;;;;;;;;;;7388162;19;20204;-83
2022/07/05 20:17:06;;;;;;;2.22;1.30;;;;;;;;;;7386273;19;20140;-85
2022/07/05 20:19:32;;;;;;;2.95;1.55;;;;;;;;;;7399130;19;20634;-84
2022/07/05 20:21:57;;;;;;;4.75;2.08;;;;;;;;;;7398648;19;20162;-86
2022/07/05 20:24:23;;;;;;;2.75;1.88;;;;;;;;;;7396856;19;20129;-83
2022/07/05 20:26:48;;;;;;;4.85;2.25;;;;;;;;;;7393897;19;20720;-86
2022/07/05 20:29:13;;;;;;;3.58;1.98;;;;;;;;;;7400800;19;20152;-84
2022/07/05 20:31:39;;;;;;;5.80;2.10;;;;;;;;;;7402458;19;20157;-83
2022/07/05 20:34:05;;;;;;;2.83;2.08;;;;;;;;;;7403074;19;20137;-81
2022/07/05 20:36:31;;;;;;;4.20;2.03;;;;;;;;;;7401448;19;20125;-80
2022/07/05 20:38:56;;;;;;;3.20;2.17;;;;;;;;;;7404873;19;20178;-86
2022/07/05 20:41:21;;;;;;;2.35;1.70;;;;;;;;;;7398419;19;20141;-85